Time;durP1;ratioP1;P1;durP2;ratioP2;P2;SDS_P1;SDS_P2;PMS_P1;PMS_P2;Temp;Humidity;BMP_temperature;BMP_pressure;BME280_temperature;BME280_humidity;BME280_pressure;Samples;Min_cycle;Max_cycle;Signal;HPM_P1;HPM_P2
2023/08/01 00:00:33;;;;;;;;;;;;;;;;;;5086289;28;19932;-69
2023/08/01 00:03:00;;;;;;;;;;;;;;;;;;5089236;28;19931;-69
2023/08/01 00:05:27;;;;;;;;;;;;;;;;;;5092472;28;19931;-69
2023/08/01 00:07:54;;;;;;;;;;;;;;;;;;5085881;28;19924;-68
2023/08/01 00:10:21;;;;;;;;;;;;;;;;;;5092122;28;20302;-68
2023/08/01 00:12:48;;;;;;;;;;;;;;;;;;5089873;28;19924;-70
2023/08/01 00:15:15;;;;;;;;;;;;;;;;;;5092619;28;19978;-68
2023/08/01 00:17:42;;;;;;;;;;;;;;;;;;5088516;28;20337;-68
2023/08/01 00:20:10;;;;;;;;;;;;;;;;;;5084185;28;21581;-67
2023/08/01 00:22:37;;;;;;;;;;;;;;;;;;5090198;28;19977;-68
2023/08/01 00:25:05;;;;;;;;;;;;;;;;;;5089277;28;19932;-68
2023/08/01 00:27:32;;;;;;;;;;;;;;;;;;5089482;28;20333;-68
2023/08/01 00:29:59;;;;;;;;;;;;;;;;;;5088093;28;20365;-68
2023/08/01 00:32:26;;;;;;;;;;;;;;;;;;5090994;28;19924;-68
2023/08/01 00:34:53;;;;;;;;;;;;;;;;;;5094264;28;20399;-70
2023/08/01 00:37:20;;;;;;;;;;;;;;;;;;5085636;28;19927;-68
2023/08/01 00:39:47;;;;;;;;;;;;;;;;;;5086515;28;19943;-68
2023/08/01 00:42:14;;;;;;;;;;;;;;;;;;5088550;28;21698;-68
2023/08/01 00:44:41;;;;;;;;;;;;;;;;;;5088510;28;19928;-68
2023/08/01 00:47:08;;;;;;;;;;;;;;;;;;5089302;28;19928;-68
2023/08/01 00:49:35;;;;;;;;;;;;;;;;;;5090434;28;20018;-68
2023/08/01 00:52:02;;;;;;;;;;;;;;;;;;5091317;28;20324;-68
2023/08/01 00:54:35;;;;;;;;;;;;;;;;;;5087537;28;19977;-68
2023/08/01 00:57:02;;;;;;;;;;;;;;;;;;5089021;28;20007;-68
2023/08/01 00:59:29;;;;;;;;;;;;;;;;;;5089730;28;19969;-68
2023/08/01 01:01:56;;;;;;;;;;;;;;;;;;5089971;28;20284;-70
2023/08/01 01:04:23;;;;;;;;;;;;;;;;;;5090441;28;19969;-68
2023/08/01 01:06:50;;;;;;;;;;;;;;;;;;5088164;28;19978;-68
2023/08/01 01:09:17;;;;;;;;;;;;;;;;;;5084179;28;19924;-69
2023/08/01 01:11:44;;;;;;;;;;;;;;;;;;5088174;28;19985;-68
2023/08/01 01:14:10;;;;;;;;;;;;;;;;;;5087211;28;19924;-68
2023/08/01 01:16:37;;;;;;;;;;;;;;;;;;5089360;28;20345;-68
2023/08/01 01:19:04;;;;;;;;;;;;;;;;;;5087702;28;19965;-68
2023/08/01 01:21:31;;;;;;;;;;;;;;;;;;5085407;28;20847;-68
2023/08/01 01:23:58;;;;;;;;;;;;;;;;;;5089251;28;19966;-68
2023/08/01 01:26:25;;;;;;;;;;;;;;;;;;5089688;28;19931;-67
2023/08/01 01:28:52;;;;;;;;;;;;;;;;;;5088431;28;20007;-67
2023/08/01 01:31:19;;;;;;;;;;;;;;;;;;5089487;28;19924;-68
2023/08/01 01:33:46;;;;;;;;;;;;;;;;;;5089771;28;19924;-67
2023/08/01 01:36:13;;;;;;;;;;;;;;;;;;5090809;28;20448;-69
2023/08/01 01:38:40;;;;;;;;;;;;;;;;;;5087844;28;19977;-69
2023/08/01 01:41:07;;;;;;;;;;;;;;;;;;5084260;28;20428;-68
2023/08/01 01:43:34;;;;;;;;;;;;;;;;;;5088982;28;19970;-68
2023/08/01 01:46:01;;;;;;;;;;;;;;;;;;5092479;28;19951;-70
2023/08/01 01:48:28;;;;;;;;;;;;;;;;;;5086369;28;19928;-69
2023/08/01 01:50:55;;;;;;;;;;;;;;;;;;5085290;28;19924;-69
2023/08/01 01:53:22;;;;;;;;;;;;;;;;;;5087419;28;19924;-70
2023/08/01 01:55:49;;;;;;;;;;;;;;;;;;5086836;28;19928;-69
2023/08/01 01:58:17;;;;;;;;;;;;;;;;;;5090624;28;19928;-68
2023/08/01 02:00:44;;;;;;;;;;;;;;;;;;5086176;28;19931;-71
2023/08/01 02:03:12;;;;;;;;;;;;;;;;;;5088968;28;19928;-69
2023/08/01 02:05:39;;;;;;;;;;;;;;;;;;5082777;28;19924;-69
2023/08/01 02:08:06;;;;;;;;;;;;;;;;;;5083103;28;20000;-69
2023/08/01 02:10:33;;;;;;;;;;;;;;;;;;5089769;28;19970;-69
2023/08/01 02:13:00;;;;;;;;;;;;;;;;;;5086514;28;19924;-69
2023/08/01 02:15:27;;;;;;;;;;;;;;;;;;5086696;28;20030;-68
2023/08/01 02:17:54;;;;;;;;;;;;;;;;;;5079612;28;19924;-68
2023/08/01 02:20:21;;;;;;;;;;;;;;;;;;5079255;28;19928;-68
2023/08/01 02:22:48;;;;;;;;;;;;;;;;;;5088903;28;19924;-68
2023/08/01 02:25:15;;;;;;;;;;;;;;;;;;5087061;28;19924;-68
2023/08/01 02:27:42;;;;;;;;;;;;;;;;;;5086085;28;20004;-68
2023/08/01 02:30:09;;;;;;;;;;;;;;;;;;5083327;28;19967;-68
2023/08/01 02:32:36;;;;;;;;;;;;;;;;;;5090139;28;19924;-68
2023/08/01 02:35:03;;;;;;;;;;;;;;;;;;5086167;28;19936;-68
2023/08/01 02:37:30;;;;;;;;;;;;;;;;;;5088191;28;19928;-68
2023/08/01 02:39:57;;;;;;;;;;;;;;;;;;5082408;28;19973;-68
2023/08/01 02:42:24;;;;;;;;;;;;;;;;;;5088197;28;20359;-68
2023/08/01 02:44:51;;;;;;;;;;;;;;;;;;5083231;28;19928;-69
2023/08/01 02:47:18;;;;;;;;;;;;;;;;;;5082221;28;20835;-68
2023/08/01 02:49:45;;;;;;;;;;;;;;;;;;5087309;28;20352;-68
2023/08/01 02:52:12;;;;;;;;;;;;;;;;;;5080842;28;19932;-69
2023/08/01 02:54:39;;;;;;;;;;;;;;;;;;5084273;28;21382;-68
2023/08/01 02:57:07;;;;;;;;;;;;;;;;;;5084176;28;19924;-68
2023/08/01 02:59:34;;;;;;;;;;;;;;;;;;5082830;28;19960;-68
2023/08/01 03:02:01;;;;;;;;;;;;;;;;;;5085560;28;19970;-68
2023/08/01 03:04:28;;;;;;;;;;;;;;;;;;5086749;28;20299;-68
2023/08/01 03:06:55;;;;;;;;;;;;;;;;;;5085444;28;19928;-68
2023/08/01 03:09:22;;;;;;;;;;;;;;;;;;5082814;28;20404;-68
2023/08/01 03:11:49;;;;;;;;;;;;;;;;;;5085602;28;19924;-69
2023/08/01 03:14:16;;;;;;;;;;;;;;;;;;5089950;28;19977;-68
2023/08/01 03:16:43;;;;;;;;;;;;;;;;;;5086334;28;20011;-68
2023/08/01 03:19:10;;;;;;;;;;;;;;;;;;5084842;28;20294;-68
2023/08/01 03:21:37;;;;;;;;;;;;;;;;;;5083837;28;19936;-68
2023/08/01 03:24:08;;;;;;;;;;;;;;;;;;5084531;28;20721;-68
2023/08/01 03:26:35;;;;;;;;;;;;;;;;;;5083187;28;19924;-68
2023/08/01 03:29:02;;;;;;;;;;;;;;;;;;5087684;28;20276;-68
2023/08/01 03:31:29;;;;;;;;;;;;;;;;;;5078279;28;19951;-67
2023/08/01 03:33:58;;;;;;;;;;;;;;;;;;5082391;28;20470;-68
2023/08/01 03:36:25;;;;;;;;;;;;;;;;;;5082491;28;20312;-67
2023/08/01 03:38:52;;;;;;;;;;;;;;;;;;5087214;28;19935;-68
2023/08/01 03:41:19;;;;;;;;;;;;;;;;;;5081990;28;20337;-68
2023/08/01 03:43:46;;;;;;;;;;;;;;;;;;5084336;28;19928;-69
2023/08/01 03:46:13;;;;;;;;;;;;;;;;;;5088214;28;20376;-69
2023/08/01 03:48:40;;;;;;;;;;;;;;;;;;5081439;28;19977;-68
2023/08/01 03:51:07;;;;;;;;;;;;;;;;;;5079712;28;20364;-69
2023/08/01 03:53:34;;;;;;;;;;;;;;;;;;5088461;28;19946;-68
2023/08/01 03:56:01;;;;;;;;;;;;;;;;;;5087611;28;19977;-68
2023/08/01 03:58:28;;;;;;;;;;;;;;;;;;5087369;28;19961;-68
2023/08/01 04:00:55;;;;;;;;;;;;;;;;;;5083261;28;20356;-68
2023/08/01 04:03:22;;;;;;;;;;;;;;;;;;5086252;28;19977;-68
2023/08/01 04:05:49;;;;;;;;;;;;;;;;;;5078789;28;19993;-68
2023/08/01 04:08:16;;;;;;;;;;;;;;;;;;5083458;28;19960;-68
2023/08/01 04:10:43;;;;;;;;;;;;;;;;;;5082585;28;19924;-68
2023/08/01 04:13:10;;;;;;;;;;;;;;;;;;5084316;28;20025;-68
2023/08/01 04:15:37;;;;;;;;;;;;;;;;;;5081488;28;19932;-68
2023/08/01 04:18:05;;;;;;;;;;;;;;;;;;5084672;28;19928;-68
2023/08/01 04:20:32;;;;;;;;;;;;;;;;;;5081685;28;19929;-68
2023/08/01 04:22:59;;;;;;;;;;;;;;;;;;5081255;28;19981;-68
2023/08/01 04:25:26;;;;;;;;;;;;;;;;;;5083431;28;19924;-68
2023/08/01 04:27:53;;;;;;;;;;;;;;;;;;5079342;28;19925;-69
2023/08/01 04:30:20;;;;;;;;;;;;;;;;;;5084126;28;19936;-70
2023/08/01 04:32:47;;;;;;;;;;;;;;;;;;5081427;28;20023;-69
2023/08/01 04:35:14;;;;;;;;;;;;;;;;;;5083929;28;19977;-69
2023/08/01 04:37:41;;;;;;;;;;;;;;;;;;5076999;28;20330;-69
2023/08/01 04:40:08;;;;;;;;;;;;;;;;;;5083390;28;19982;-69
2023/08/01 04:42:35;;;;;;;;;;;;;;;;;;5085374;28;19993;-69
2023/08/01 04:45:03;;;;;;;;;;;;;;;;;;5087077;28;19928;-69
2023/08/01 04:47:30;;;;;;;;;;;;;;;;;;5083892;28;20281;-69
2023/08/01 04:49:57;;;;;;;;;;;;;;;;;;5088661;28;19967;-69
2023/08/01 04:52:24;;;;;;;;;;;;;;;;;;5087941;28;20264;-69
2023/08/01 04:54:51;;;;;;;;;;;;;;;;;;5086203;28;19979;-69
2023/08/01 04:57:18;;;;;;;;;;;;;;;;;;5088296;28;19925;-69
2023/08/01 04:59:45;;;;;;;;;;;;;;;;;;5086423;28;20385;-69
2023/08/01 05:02:12;;;;;;;;;;;;;;;;;;5087923;28;19932;-69
2023/08/01 05:04:39;;;;;;;;;;;;;;;;;;5090467;28;19924;-69
2023/08/01 05:07:07;;;;;;;;;;;;;;;;;;5086550;28;20450;-69
2023/08/01 05:09:34;;;;;;;;;;;;;;;;;;5087442;28;20023;-69
2023/08/01 05:12:01;;;;;;;;;;;;;;;;;;5080930;28;20458;-69
2023/08/01 05:14:28;;;;;;;;;;;;;;;;;;5087926;28;19954;-69
2023/08/01 05:16:55;;;;;;;;;;;;;;;;;;5091796;28;19962;-69
2023/08/01 05:19:22;;;;;;;;;;;;;;;;;;5094209;28;20034;-70
2023/08/01 05:21:49;;;;;;;;;;;;;;;;;;5093193;28;20357;-69
2023/08/01 05:24:16;;;;;;;;;;;;;;;;;;5094808;28;19924;-69
2023/08/01 05:26:43;;;;;;;;;;;;;;;;;;5094907;28;19969;-69
2023/08/01 05:29:10;;;;;;;;;;;;;;;;;;5093063;28;19932;-70
2023/08/01 05:31:37;;;;;;;;;;;;;;;;;;5095572;28;19933;-69
2023/08/01 05:34:04;;;;;;;;;;;;;;;;;;5091755;28;20338;-69
2023/08/01 05:36:31;;;;;;;;;;;;;;;;;;5096723;28;19997;-69
2023/08/01 05:38:58;;;;;;;;;;;;;;;;;;5092555;28;19978;-69
2023/08/01 05:41:25;;;;;;;;;;;;;;;;;;5082499;28;19968;-69
2023/08/01 05:43:52;;;;;;;;;;;;;;;;;;5093167;28;19928;-70
2023/08/01 05:46:19;;;;;;;;;;;;;;;;;;5094140;28;19973;-69
2023/08/01 05:48:46;;;;;;;;;;;;;;;;;;5084114;28;19969;-69
2023/08/01 05:51:13;;;;;;;;;;;;;;;;;;5088883;28;19970;-68
2023/08/01 05:53:40;;;;;;;;;;;;;;;;;;5091440;28;20441;-69
2023/08/01 05:56:07;;;;;;;;;;;;;;;;;;5090942;28;19985;-69
2023/08/01 05:58:34;;;;;;;;;;;;;;;;;;5088551;28;19924;-68
2023/08/01 06:01:01;;;;;;;;;;;;;;;;;;5091666;28;19935;-69
2023/08/01 06:03:28;;;;;;;;;;;;;;;;;;5096979;28;20019;-69
2023/08/01 06:05:55;;;;;;;;;;;;;;;;;;5089124;28;19984;-69
2023/08/01 06:08:22;;;;;;;;;;;;;;;;;;5094858;28;19931;-69
2023/08/01 06:10:49;;;;;;;;;;;;;;;;;;5091485;28;20275;-69
2023/08/01 06:13:16;;;;;;;;;;;;;;;;;;5094582;28;19967;-68
2023/08/01 06:15:43;;;;;;;;;;;;;;;;;;5096468;28;19978;-68
2023/08/01 06:18:11;;;;;;;;;;;;;;;;;;5096658;28;19977;-68
2023/08/01 06:20:38;;;;;;;;;;;;;;;;;;5095677;28;20223;-68
2023/08/01 06:23:05;;;;;;;;;;;;;;;;;;5095921;28;19928;-69
2023/08/01 06:25:32;;;;;;;;;;;;;;;;;;5097595;28;19928;-68
2023/08/01 06:27:59;;;;;;;;;;;;;;;;;;5093757;28;19973;-68
2023/08/01 06:30:26;;;;;;;;;;;;;;;;;;5088172;28;19971;-68
2023/08/01 06:32:53;;;;;;;;;;;;;;;;;;5091281;28;19924;-68
2023/08/01 06:35:21;;;;;;;;;;;;;;;;;;5085437;28;19931;-68
2023/08/01 06:37:48;;;;;;;;;;;;;;;;;;5087326;28;19932;-69
2023/08/01 06:40:15;;;;;;;;;;;;;;;;;;5091673;28;20338;-68
2023/08/01 06:42:42;;;;;;;;;;;;;;;;;;5092445;28;19924;-67
2023/08/01 06:45:09;;;;;;;;;;;;;;;;;;5084886;28;20346;-67
2023/08/01 06:47:36;;;;;;;;;;;;;;;;;;5087967;28;19928;-68
2023/08/01 06:50:04;;;;;;;;;;;;;;;;;;5074463;28;20387;-68
2023/08/01 06:52:31;;;;;;;;;;;;;;;;;;5079988;28;19924;-68
2023/08/01 06:54:58;;;;;;;;;;;;;;;;;;5084292;28;20333;-69
2023/08/01 06:57:25;;;;;;;;;;;;;;;;;;5090868;28;19978;-68
2023/08/01 06:59:53;;;;;;;;;;;;;;;;;;5089797;28;19924;-68
2023/08/01 07:02:20;;;;;;;;;;;;;;;;;;5086789;28;19979;-68
2023/08/01 07:04:47;;;;;;;;;;;;;;;;;;5083207;28;20291;-67
2023/08/01 07:07:14;;;;;;;;;;;;;;;;;;5084842;28;19936;-68
2023/08/01 07:09:41;;;;;;;;;;;;;;;;;;5086049;28;19978;-68
2023/08/01 07:12:08;;;;;;;;;;;;;;;;;;5090245;28;20391;-68
2023/08/01 07:14:35;;;;;;;;;;;;;;;;;;5092825;28;19924;-68
2023/08/01 07:17:02;;;;;;;;;;;;;;;;;;5088060;28;20432;-68
2023/08/01 07:19:29;;;;;;;;;;;;;;;;;;5088183;28;19941;-69
2023/08/01 07:21:56;;;;;;;;;;;;;;;;;;5090452;28;19931;-68
2023/08/01 07:24:23;;;;;;;;;;;;;;;;;;5083919;28;19924;-68
2023/08/01 07:26:50;;;;;;;;;;;;;;;;;;5081823;28;19932;-68
2023/08/01 07:29:17;;;;;;;;;;;;;;;;;;5084281;28;19960;-68
2023/08/01 07:31:44;;;;;;;;;;;;;;;;;;5084636;28;19927;-68
2023/08/01 07:34:11;;;;;;;;;;;;;;;;;;5084604;28;19924;-68
2023/08/01 07:36:38;;;;;;;;;;;;;;;;;;5082738;28;19955;-68
2023/08/01 07:39:05;;;;;;;;;;;;;;;;;;5087139;28;19927;-69
2023/08/01 07:41:33;;;;;;;;;;;;;;;;;;5088662;28;20438;-69
2023/08/01 07:44:00;;;;;;;;;;;;;;;;;;5091559;28;19960;-68
2023/08/01 07:46:27;;;;;;;;;;;;;;;;;;5090961;28;19924;-68
2023/08/01 07:48:54;;;;;;;;;;;;;;;;;;5090431;28;19924;-68
2023/08/01 07:51:21;;;;;;;;;;;;;;;;;;5091050;28;20405;-68
2023/08/01 07:53:48;;;;;;;;;;;;;;;;;;5088530;28;20001;-68
2023/08/01 07:56:15;;;;;;;;;;;;;;;;;;5102703;28;19925;-68
2023/08/01 07:58:42;;;;;;;;;;;;;;;;;;5092051;28;19932;-68
2023/08/01 08:01:09;;;;;;;;;;;;;;;;;;5089383;28;19969;-68
2023/08/01 08:03:36;;;;;;;;;;;;;;;;;;5090518;28;19931;-68
2023/08/01 08:06:05;;;;;;;;;;;;;;;;;;5084437;28;19924;-68
2023/08/01 08:08:33;;;;;;;;;;;;;;;;;;5089137;28;19931;-68
2023/08/01 08:11:00;;;;;;;;;;;;;;;;;;5079262;28;20760;-68
2023/08/01 08:13:27;;;;;;;;;;;;;;;;;;5084533;28;19932;-68
2023/08/01 08:15:54;;;;;;;;;;;;;;;;;;5087207;28;19985;-68
2023/08/01 08:18:22;;;;;;;;;;;;;;;;;;5089854;28;19977;-69
2023/08/01 08:20:49;;;;;;;;;;;;;;;;;;5088707;28;20001;-69
2023/08/01 08:23:16;;;;;;;;;;;;;;;;;;5088478;28;19932;-69
2023/08/01 08:25:44;;;;;;;;;;;;;;;;;;5087620;28;19924;-68
2023/08/01 08:28:11;;;;;;;;;;;;;;;;;;5082813;28;19974;-71
2023/08/01 08:30:38;;;;;;;;;;;;;;;;;;5087352;28;19936;-69
2023/08/01 08:33:06;;;;;;;;;;;;;;;;;;5088673;28;19936;-69
2023/08/01 08:35:33;;;;;;;;;;;;;;;;;;5091743;28;19931;-69
2023/08/01 08:38:00;;;;;;;;;;;;;;;;;;5089282;28;19928;-69
2023/08/01 08:40:27;;;;;;;;;;;;;;;;;;5084718;28;19969;-69
2023/08/01 08:42:54;;;;;;;;;;;;;;;;;;5091074;28;19924;-69
2023/08/01 08:45:21;;;;;;;;;;;;;;;;;;5086959;28;19924;-69
2023/08/01 08:47:48;;;;;;;;;;;;;;;;;;5089315;28;19924;-69
2023/08/01 08:50:15;;;;;;;;;;;;;;;;;;5087974;28;20284;-69
2023/08/01 08:52:42;;;;;;;;;;;;;;;;;;5084385;28;19970;-69
2023/08/01 08:55:09;;;;;;;;;;;;;;;;;;5088748;28;19924;-70
2023/08/01 08:57:36;;;;;;;;;;;;;;;;;;5090440;28;19978;-69
2023/08/01 09:00:04;;;;;;;;;;;;;;;;;;5083436;28;19924;-70
2023/08/01 09:02:31;;;;;;;;;;;;;;;;;;5088992;28;20023;-69
2023/08/01 09:04:58;;;;;;;;;;;;;;;;;;5091387;28;19924;-67
2023/08/01 09:07:25;;;;;;;;;;;;;;;;;;5090525;28;19924;-69
2023/08/01 09:09:53;;;;;;;;;;;;;;;;;;5084149;28;20329;-70
2023/08/01 09:12:20;;;;;;;;;;;;;;;;;;5082722;28;19931;-69
2023/08/01 09:14:47;;;;;;;;;;;;;;;;;;5088753;28;20399;-67
2023/08/01 09:17:16;;;;;;;;;;;;;;;;;;5085128;28;19963;-69
2023/08/01 09:19:43;;;;;;;;;;;;;;;;;;5087185;28;19924;-69
2023/08/01 09:22:10;;;;;;;;;;;;;;;;;;5091717;28;20037;-69
2023/08/01 09:24:37;;;;;;;;;;;;;;;;;;5087327;28;19928;-69
2023/08/01 09:27:04;;;;;;;;;;;;;;;;;;5084525;28;19928;-69
2023/08/01 09:29:32;;;;;;;;;;;;;;;;;;5085270;28;20391;-69
2023/08/01 09:31:59;;;;;;;;;;;;;;;;;;5085978;28;19977;-68
2023/08/01 09:34:26;;;;;;;;;;;;;;;;;;5085017;28;20333;-69
2023/08/01 09:36:53;;;;;;;;;;;;;;;;;;5083110;28;19978;-69
2023/08/01 09:39:20;;;;;;;;;;;;;;;;;;5083095;28;19989;-69
2023/08/01 09:41:47;;;;;;;;;;;;;;;;;;5090161;28;20041;-70
2023/08/01 09:44:14;;;;;;;;;;;;;;;;;;5101998;28;20015;-69
2023/08/01 09:46:42;;;;;;;;;;;;;;;;;;5088015;28;19985;-69
2023/08/01 09:49:09;;;;;;;;;;;;;;;;;;5086084;28;19960;-70
2023/08/01 09:51:36;;;;;;;;;;;;;;;;;;5081686;28;19924;-69
2023/08/01 09:54:06;;;;;;;;;;;;;;;;;;5081632;28;20024;-70
2023/08/01 09:56:35;;;;;;;;;;;;;;;;;;5082754;28;19963;-67
2023/08/01 09:59:02;;;;;;;;;;;;;;;;;;5081759;28;20018;-67
2023/08/01 10:01:29;;;;;;;;;;;;;;;;;;5090490;22;19935;-67
2023/08/01 10:03:56;;;;;;;;;;;;;;;;;;5072280;28;19924;-67
2023/08/01 10:06:23;;;;;;;;;;;;;;;;;;5070191;28;19924;-68
2023/08/01 10:08:50;;;;;;;;;;;;;;;;;;5070612;28;19924;-70
2023/08/01 10:11:17;;;;;;;;;;;;;;;;;;5058666;28;19924;-72
2023/08/01 10:13:44;;;;;;;;;;;;;;;;;;5067894;28;19978;-70
2023/08/01 10:16:11;;;;;;;;;;;;;;;;;;5067397;28;19994;-71
2023/08/01 10:18:39;;;;;;;;;;;;;;;;;;5065293;28;19971;-72
2023/08/01 10:21:06;;;;;;;;;;;;;;;;;;5070478;28;19925;-71
2023/08/01 10:23:33;;;;;;;;;;;;;;;;;;5070332;28;19932;-71
2023/08/01 10:26:00;;;;;;;;;;;;;;;;;;5065213;28;19962;-71
2023/08/01 10:28:27;;;;;;;;;;;;;;;;;;5066014;28;19971;-70
2023/08/01 10:30:54;;;;;;;;;;;;;;;;;;5064642;28;20032;-71
2023/08/01 10:33:21;;;;;;;;;;;;;;;;;;5073213;28;20457;-71
2023/08/01 10:35:48;;;;;;;;;;;;;;;;;;5054499;28;19932;-71
2023/08/01 10:38:17;;;;;;;;;;;;;;;;;;5068132;28;20371;-71
2023/08/01 10:40:44;;;;;;;;;;;;;;;;;;5073553;28;19924;-71
2023/08/01 10:43:11;;;;;;;;;;;;;;;;;;5057866;28;19968;-70
2023/08/01 10:45:38;;;;;;;;;;;;;;;;;;5068663;28;20403;-70
2023/08/01 10:48:05;;;;;;;;;;;;;;;;;;5065878;28;19932;-70
2023/08/01 10:50:32;;;;;;;;;;;;;;;;;;5072333;28;19970;-70
2023/08/01 10:52:59;;;;;;;;;;;;;;;;;;5071834;28;19994;-71
2023/08/01 10:55:29;;;;;;;;;;;;;;;;;;5067500;28;19932;-70
2023/08/01 10:57:57;;;;;;;;;;;;;;;;;;5057066;28;19925;-71
2023/08/01 11:00:24;;;;;;;;;;;;;;;;;;5055253;28;19924;-71
2023/08/01 11:02:51;;;;;;;;;;;;;;;;;;5064303;28;20033;-70
2023/08/01 11:05:18;;;;;;;;;;;;;;;;;;5073361;28;20016;-71
2023/08/01 11:07:45;;;;;;;;;;;;;;;;;;5073115;28;20338;-71
2023/08/01 11:10:12;;;;;;;;;;;;;;;;;;5074439;28;19924;-71
2023/08/01 11:12:39;;;;;;;;;;;;;;;;;;5070006;28;19928;-70
2023/08/01 11:15:08;;;;;;;;;;;;;;;;;;5056074;28;19925;-70
2023/08/01 11:17:35;;;;;;;;;;;;;;;;;;5070789;28;19932;-70
2023/08/01 11:20:02;;;;;;;;;;;;;;;;;;5064703;28;19967;-70
2023/08/01 11:22:30;;;;;;;;;;;;;;;;;;5064631;28;20458;-70
2023/08/01 11:24:57;;;;;;;;;;;;;;;;;;5072175;28;20007;-71
2023/08/01 11:27:24;;;;;;;;;;;;;;;;;;5072043;28;19924;-70
2023/08/01 11:29:51;;;;;;;;;;;;;;;;;;5071869;28;20471;-70
2023/08/01 11:32:19;;;;;;;;;;;;;;;;;;5069864;28;19928;-70
2023/08/01 11:34:46;;;;;;;;;;;;;;;;;;5073476;28;19928;-70
2023/08/01 11:37:14;;;;;;;;;;;;;;;;;;5071188;28;19985;-70
2023/08/01 11:39:41;;;;;;;;;;;;;;;;;;5072301;28;20280;-70
2023/08/01 11:42:08;;;;;;;;;;;;;;;;;;5071110;28;19925;-70
2023/08/01 11:44:35;;;;;;;;;;;;;;;;;;5069860;28;19932;-70
2023/08/01 11:47:03;;;;;;;;;;;;;;;;;;5062010;28;19924;-71
2023/08/01 11:49:30;;;;;;;;;;;;;;;;;;5070022;28;20344;-71
2023/08/01 11:51:57;;;;;;;;;;;;;;;;;;5070577;28;19924;-71
2023/08/01 11:54:24;;;;;;;;;;;;;;;;;;5061360;28;19986;-71
2023/08/01 11:56:51;;;;;;;;;;;;;;;;;;5068831;28;19932;-71
2023/08/01 11:59:18;;;;;;;;;;;;;;;;;;5070474;28;19924;-71
2023/08/01 12:01:46;;;;;;;;;;;;;;;;;;5070590;28;19932;-70
2023/08/01 12:04:13;;;;;;;;;;;;;;;;;;5072910;28;19924;-70
2023/08/01 12:06:40;;;;;;;;;;;;;;;;;;5064077;28;19933;-71
2023/08/01 12:09:07;;;;;;;;;;;;;;;;;;5073176;28;19928;-71
2023/08/01 12:11:34;;;;;;;;;;;;;;;;;;5072145;28;19924;-70
2023/08/01 12:14:01;;;;;;;;;;;;;;;;;;5072315;28;20088;-70
2023/08/01 12:16:28;;;;;;;;;;;;;;;;;;5069307;28;19925;-71
2023/08/01 12:18:55;;;;;;;;;;;;;;;;;;5062194;28;19928;-71
2023/08/01 12:21:22;;;;;;;;;;;;;;;;;;5052969;28;20330;-71
2023/08/01 12:23:49;;;;;;;;;;;;;;;;;;5068403;28;19932;-70
2023/08/01 12:26:19;;;;;;;;;;;;;;;;;;5068845;28;19924;-73
2023/08/01 12:28:47;;;;;;;;;;;;;;;;;;5070528;28;19939;-70
2023/08/01 12:31:14;;;;;;;;;;;;;;;;;;5069883;28;20015;-69
2023/08/01 12:33:41;;;;;;;;;;;;;;;;;;5071414;28;19932;-70
2023/08/01 12:36:08;;;;;;;;;;;;;;;;;;5060069;28;19999;-70
2023/08/01 12:38:35;;;;;;;;;;;;;;;;;;5060175;28;20069;-71
2023/08/01 12:41:02;;;;;;;;;;;;;;;;;;5067672;28;19952;-71
2023/08/01 12:43:35;;;;;;;;;;;;;;;;;;5061710;28;19937;-71
2023/08/01 12:46:02;;;;;;;;;;;;;;;;;;5065266;28;20305;-70
2023/08/01 12:48:29;;;;;;;;;;;;;;;;;;5062389;28;19966;-69
2023/08/01 12:50:56;;;;;;;;;;;;;;;;;;5058761;28;19997;-69
2023/08/01 12:53:23;;;;;;;;;;;;;;;;;;5055675;28;19982;-69
2023/08/01 12:55:50;;;;;;;;;;;;;;;;;;5060898;28;19929;-70
2023/08/01 12:58:17;;;;;;;;;;;;;;;;;;5065248;28;19928;-70
2023/08/01 13:00:44;;;;;;;;;;;;;;;;;;5064268;28;19933;-69
2023/08/01 13:03:11;;;;;;;;;;;;;;;;;;5058256;28;20497;-69
2023/08/01 13:05:38;;;;;;;;;;;;;;;;;;5057747;28;19932;-69
2023/08/01 13:08:05;;;;;;;;;;;;;;;;;;5059243;28;19986;-68
2023/08/01 13:10:32;;;;;;;;;;;;;;;;;;5063179;28;20362;-70
2023/08/01 13:12:59;;;;;;;;;;;;;;;;;;5056398;28;19986;-70
2023/08/01 13:15:26;;;;;;;;;;;;;;;;;;5060716;28;20081;-70
2023/08/01 13:17:53;;;;;;;;;;;;;;;;;;5060066;28;19928;-69
2023/08/01 13:20:20;;;;;;;;;;;;;;;;;;5063063;28;20349;-69
2023/08/01 13:22:47;;;;;;;;;;;;;;;;;;5054356;28;20027;-70
2023/08/01 13:25:15;;;;;;;;;;;;;;;;;;5065599;28;20001;-70
2023/08/01 13:27:42;;;;;;;;;;;;;;;;;;5054850;28;20007;-69
2023/08/01 13:30:10;;;;;;;;;;;;;;;;;;5058283;28;19989;-69
2023/08/01 13:32:37;;;;;;;;;;;;;;;;;;5054488;28;19943;-70
2023/08/01 13:35:04;;;;;;;;;;;;;;;;;;5055352;28;20006;-71
2023/08/01 13:37:31;;;;;;;;;;;;;;;;;;5059865;22;19967;-71
2023/08/01 13:39:58;;;;;;;;;;;;;;;;;;5041319;28;19929;-70
2023/08/01 13:42:25;;;;;;;;;;;;;;;;;;5039293;28;20376;-70
2023/08/01 13:44:52;;;;;;;;;;;;;;;;;;5042636;28;19944;-70
2023/08/01 13:47:20;;;;;;;;;;;;;;;;;;5049371;28;19929;-70
2023/08/01 13:49:47;;;;;;;;;;;;;;;;;;5040511;28;19925;-68
2023/08/01 13:52:14;;;;;;;;;;;;;;;;;;5041937;28;19928;-69
2023/08/01 13:54:41;;;;;;;;;;;;;;;;;;5047174;28;20607;-70
2023/08/01 13:57:08;;;;;;;;;;;;;;;;;;5049738;28;19925;-70
2023/08/01 13:59:36;;;;;;;;;;;;;;;;;;5045326;28;19976;-70
2023/08/01 14:02:04;;;;;;;;;;;;;;;;;;5049896;28;19925;-70
2023/08/01 14:04:31;;;;;;;;;;;;;;;;;;5053418;28;20442;-70
2023/08/01 14:06:58;;;;;;;;;;;;;;;;;;5052198;28;19928;-69
2023/08/01 14:09:25;;;;;;;;;;;;;;;;;;5051431;28;19932;-68
2023/08/01 14:11:52;;;;;;;;;;;;;;;;;;5046675;28;20369;-69
2023/08/01 14:14:19;;;;;;;;;;;;;;;;;;5050913;28;19979;-69
2023/08/01 14:16:46;;;;;;;;;;;;;;;;;;5054253;28;19925;-70
2023/08/01 14:19:13;;;;;;;;;;;;;;;;;;5050863;28;19925;-69
2023/08/01 14:21:40;;;;;;;;;;;;;;;;;;5035042;28;19929;-70
2023/08/01 14:24:07;;;;;;;;;;;;;;;;;;5043250;28;20303;-70
2023/08/01 14:26:35;;;;;;;;;;;;;;;;;;5053659;28;19924;-69
2023/08/01 14:29:02;;;;;;;;;;;;;;;;;;5055267;28;20407;-70
2023/08/01 14:31:29;;;;;;;;;;;;;;;;;;5043833;28;19932;-70
2023/08/01 14:33:56;;;;;;;;;;;;;;;;;;5046528;28;19925;-70
2023/08/01 14:36:23;;;;;;;;;;;;;;;;;;5050089;28;19933;-70
2023/08/01 14:38:54;;;;;;;;;;;;;;;;;;5051507;28;20002;-69
2023/08/01 14:41:21;;;;;;;;;;;;;;;;;;5041761;28;20304;-69
2023/08/01 14:43:48;;;;;;;;;;;;;;;;;;5048522;28;20383;-70
2023/08/01 14:46:15;;;;;;;;;;;;;;;;;;5036938;28;19933;-69
2023/08/01 14:48:42;;;;;;;;;;;;;;;;;;5044525;28;20000;-69
2023/08/01 14:51:09;;;;;;;;;;;;;;;;;;5043452;28;19968;-69
2023/08/01 14:53:36;;;;;;;;;;;;;;;;;;5049104;28;20265;-69
2023/08/01 14:56:04;;;;;;;;;;;;;;;;;;5037988;28;19933;-69
2023/08/01 14:58:31;;;;;;;;;;;;;;;;;;5043824;28;19924;-69
2023/08/01 15:00:58;;;;;;;;;;;;;;;;;;5052171;28;19951;-70
2023/08/01 15:03:25;;;;;;;;;;;;;;;;;;5052467;28;19924;-70
2023/08/01 15:05:52;;;;;;;;;;;;;;;;;;5049216;28;19970;-69
2023/08/01 15:08:19;;;;;;;;;;;;;;;;;;5058176;28;19942;-69
2023/08/01 15:10:46;;;;;;;;;;;;;;;;;;5050660;28;19924;-69
2023/08/01 15:13:13;;;;;;;;;;;;;;;;;;5041543;28;20363;-69
2023/08/01 15:15:40;;;;;;;;;;;;;;;;;;5044620;28;19925;-70
2023/08/01 15:18:07;;;;;;;;;;;;;;;;;;5045706;28;19933;-70
2023/08/01 15:20:38;;;;;;;;;;;;;;;;;;5054700;28;19925;-69
2023/08/01 15:23:05;;;;;;;;;;;;;;;;;;5049004;28;19933;-70
2023/08/01 15:25:32;;;;;;;;;;;;;;;;;;5057410;28;19925;-70
2023/08/01 15:27:59;;;;;;;;;;;;;;;;;;5046899;28;19979;-70
2023/08/01 15:30:26;;;;;;;;;;;;;;;;;;5065454;28;19928;-69
2023/08/01 15:32:53;;;;;;;;;;;;;;;;;;5052126;28;19932;-70
2023/08/01 15:35:20;;;;;;;;;;;;;;;;;;5048292;28;19925;-69
2023/08/01 15:37:47;;;;;;;;;;;;;;;;;;5046957;28;19929;-69
2023/08/01 15:40:14;;;;;;;;;;;;;;;;;;5037040;28;20016;-68
2023/08/01 15:42:41;;;;;;;;;;;;;;;;;;5036288;28;19994;-69
2023/08/01 15:45:08;;;;;;;;;;;;;;;;;;5036047;28;20334;-68
2023/08/01 15:47:35;;;;;;;;;;;;;;;;;;5040469;28;20325;-69
2023/08/01 15:50:02;;;;;;;;;;;;;;;;;;5040306;28;20455;-69
2023/08/01 15:52:29;;;;;;;;;;;;;;;;;;5050897;28;19925;-69
2023/08/01 15:54:56;;;;;;;;;;;;;;;;;;5042833;28;19929;-70
2023/08/01 15:57:23;;;;;;;;;;;;;;;;;;5045006;28;19932;-70
2023/08/01 15:59:50;;;;;;;;;;;;;;;;;;5037582;28;19925;-69
2023/08/01 16:02:17;;;;;;;;;;;;;;;;;;5047315;28;19929;-70
2023/08/01 16:04:44;;;;;;;;;;;;;;;;;;5051356;28;19970;-69
2023/08/01 16:07:11;;;;;;;;;;;;;;;;;;5042235;28;19925;-69
2023/08/01 16:09:39;;;;;;;;;;;;;;;;;;5045640;28;19986;-68
2023/08/01 16:12:06;;;;;;;;;;;;;;;;;;5048334;28;19955;-69
2023/08/01 16:14:33;;;;;;;;;;;;;;;;;;5051100;28;20395;-70
2023/08/01 16:17:00;;;;;;;;;;;;;;;;;;5048093;28;19986;-70
2023/08/01 16:19:27;;;;;;;;;;;;;;;;;;5050157;28;20458;-70
2023/08/01 16:21:54;;;;;;;;;;;;;;;;;;5047679;28;19925;-71
2023/08/01 16:24:21;;;;;;;;;;;;;;;;;;5046575;28;19986;-71
2023/08/01 16:26:48;;;;;;;;;;;;;;;;;;5051256;28;20024;-71
2023/08/01 16:29:15;;;;;;;;;;;;;;;;;;5049436;28;19995;-72
2023/08/01 16:31:42;;;;;;;;;;;;;;;;;;5047597;28;19990;-70
2023/08/01 16:34:09;;;;;;;;;;;;;;;;;;5040474;28;19925;-71
2023/08/01 16:36:36;;;;;;;;;;;;;;;;;;5041754;28;19933;-71
2023/08/01 16:39:03;;;;;;;;;;;;;;;;;;5046702;28;19978;-71
2023/08/01 16:41:30;;;;;;;;;;;;;;;;;;5043878;28;20737;-71
2023/08/01 16:43:57;;;;;;;;;;;;;;;;;;5045631;28;20307;-70